Time;durP1;ratioP1;P1;durP2;ratioP2;P2;SDS_P1;SDS_P2;PMS_P1;PMS_P2;Temp;Humidity;BMP_temperature;BMP_pressure;BME280_temperature;BME280_humidity;BME280_pressure;Samples;Min_cycle;Max_cycle;Signal;HPM_P1;HPM_P2
2022/09/06 00:01:16;;;;;;;37.00;7.63;;;;;;;15.85;97.21;100112.50;6240486;23;20019;-40
2022/09/06 00:03:47;;;;;;;37.75;7.30;;;;;;;15.85;97.09;100109.72;6244246;23;20511;-47
2022/09/06 00:06:16;;;;;;;36.53;7.18;;;;;;;15.84;97.08;100116.47;6243489;23;20016;-41
2022/09/06 00:08:44;;;;;;;31.70;5.28;;;;;;;15.83;97.20;100109.31;6240797;23;20020;-42
2022/09/06 00:11:12;;;;;;;40.75;5.50;;;;;;;15.81;97.38;100109.69;6242959;23;20091;-42
2022/09/06 00:13:39;;;;;;;44.38;6.55;;;;;;;15.82;97.27;100110.50;6240792;23;20615;-41
2022/09/06 00:16:19;;;;;;;47.97;8.25;;;;;;;15.82;97.38;100116.88;6240503;23;20024;-41
2022/09/06 00:18:46;;;;;;;33.55;6.90;;;;;;;15.82;97.37;100116.09;6242941;23;20074;-40
2022/09/06 00:21:22;;;;;;;42.40;8.15;;;;;;;15.83;97.52;100121.25;6242793;23;20115;-42
2022/09/06 00:23:50;;;;;;;36.28;6.20;;;;;;;15.85;97.64;100120.88;6244154;23;20051;-43
2022/09/06 00:26:17;;;;;;;34.53;5.60;;;;;;;15.87;97.73;100124.06;6242124;23;20070;-40
2022/09/06 00:28:47;;;;;;;44.65;7.13;;;;;;;15.90;97.95;100116.91;6240886;23;20026;-42
2022/09/06 00:31:34;;;;;;;39.35;7.35;;;;;;;15.92;98.30;100126.47;6241501;23;20016;-42
2022/09/06 00:34:01;;;;;;;48.58;7.55;;;;;;;15.95;98.37;100122.88;6238929;23;20031;-41
2022/09/06 00:36:28;;;;;;;35.55;6.93;;;;;;;15.98;98.34;100116.50;6243132;23;20102;-41
2022/09/06 00:38:55;;;;;;;45.58;8.93;;;;;;;16.00;98.43;100108.53;6239308;23;20016;-43
2022/09/06 00:41:22;;;;;;;48.78;7.20;;;;;;;16.02;98.50;100108.94;6241946;23;20030;-42
2022/09/06 00:43:48;;;;;;;42.92;8.05;;;;;;;16.04;98.71;100105.75;6242433;23;20348;-42
2022/09/06 00:46:21;;;;;;;45.25;7.45;;;;;;;16.04;98.83;100106.56;6240445;23;20070;-46
2022/09/06 00:48:56;;;;;;;38.67;6.93;;;;;;;16.05;98.86;100104.53;6243322;23;20027;-41
2022/09/06 00:51:27;;;;;;;46.22;8.20;;;;;;;16.01;99.15;100104.56;6240836;23;21138;-41
2022/09/06 00:53:54;;;;;;;39.83;6.95;;;;;;;16.00;99.36;100111.31;6244455;23;20026;-41
2022/09/06 00:56:22;;;;;;;44.47;6.63;;;;;;;15.99;99.37;100120.88;6242971;23;20016;-48
2022/09/06 00:58:49;;;;;;;47.97;6.88;;;;;;;15.96;99.67;100110.53;6241583;23;20020;-41
2022/09/06 01:01:16;;;;;;;32.22;7.28;;;;;;;15.96;99.75;100110.53;6243186;23;20016;-41
2022/09/06 01:03:43;;;;;;;27.40;6.15;;;;;;;15.93;99.73;100111.31;6243959;23;20019;-42
2022/09/06 01:06:32;;;;;;;41.38;6.75;;;;;;;15.93;99.74;100116.91;6238169;23;20021;-41
2022/09/06 01:09:24;;;;;;;43.38;7.85;;;;;;;15.90;99.68;100114.91;6239983;23;20462;-45
2022/09/06 01:12:17;;;;;;;39.30;6.65;;;;;;;15.86;99.64;100121.69;6243476;23;20032;-43
2022/09/06 01:24:41;;;;;;;38.63;6.35;;;;;;;15.81;100.00;100111.69;6215930;23;20017;-41
2022/09/06 01:27:26;;;;;;;37.42;6.65;;;;;;;15.81;100.00;100108.91;6207412;23;20103;-41
2022/09/06 01:30:05;;;;;;;47.42;7.22;;;;;;;15.81;100.00;100109.69;6217539;23;20540;-41
2022/09/06 01:32:41;;;;;;;46.50;8.05;;;;;;;15.82;100.00;100114.09;6219097;23;20067;-41
2022/09/06 01:35:29;;;;;;;40.92;6.88;;;;;;;15.82;100.00;100121.66;6219292;23;20021;-40
2022/09/06 01:37:56;;;;;;;44.42;6.47;;;;;;;15.79;100.00;100103.72;6218329;23;20339;-40
2022/09/06 01:40:23;;;;;;;34.15;6.15;;;;;;;15.80;100.00;100101.72;6217571;23;20288;-41
2022/09/06 01:42:52;;;;;;;41.15;6.43;;;;;;;15.78;100.00;100115.25;6216947;23;20051;-42
2022/09/06 01:45:27;;;;;;;47.33;8.30;;;;;;;15.74;100.00;100111.69;6219387;23;20020;-40
2022/09/06 01:48:47;;;;;;;43.95;7.15;;;;;;;15.72;100.00;100108.50;6193158;23;20017;-40
2022/09/06 01:51:20;;;;;;;42.92;8.07;;;;;;;15.72;100.00;100100.94;6055887;23;20452;-40
2022/09/06 01:54:15;;;;;;;33.90;7.10;;;;;;;15.74;100.00;100092.16;6208536;23;20081;-41
2022/09/06 01:56:59;;;;;;;40.80;8.50;;;;;;;15.74;100.00;100100.53;6216746;23;20025;-41
2022/09/06 01:59:56;;;;;;;38.92;6.57;;;;;;;15.71;100.00;100104.09;6217200;23;20396;-41
2022/09/06 02:02:41;;;;;;;29.45;5.85;;;;;;;15.71;100.00;100098.50;6219075;23;20020;-40
2022/09/06 02:05:19;;;;;;;31.05;5.95;;;;;;;15.72;100.00;100094.53;6219254;23;20039;-39
2022/09/06 02:07:49;;;;;;;34.47;7.30;;;;;;;15.73;100.00;100093.31;6216773;23;20443;-41
2022/09/06 02:10:30;;;;;;;32.85;6.68;;;;;;;15.74;100.00;100098.53;6219095;23;20059;-40
2022/09/06 02:13:13;;;;;;;36.33;6.35;;;;;;;15.76;100.00;100098.94;6217055;23;20012;-40
2022/09/06 02:15:52;;;;;;;43.83;7.50;;;;;;;15.79;100.00;100100.13;6217171;23;20016;-41
2022/09/06 02:18:32;;;;;;;35.58;6.25;;;;;;;15.81;100.00;100100.53;6217067;23;20316;-39
2022/09/06 02:21:02;;;;;;;30.40;5.78;;;;;;;15.82;100.00;100100.16;6217694;23;20422;-41
2022/09/06 02:23:34;;;;;;;52.13;9.38;;;;;;;15.84;100.00;100094.16;6217009;23;20089;-41
2022/09/06 02:26:08;;;;;;;44.92;6.88;;;;;;;15.85;100.00;100087.38;6190277;23;20048;-41
2022/09/06 02:28:38;;;;;;;44.10;6.65;;;;;;;15.84;100.00;100102.53;6216606;23;20017;-41
2022/09/06 02:31:14;;;;;;;40.33;6.15;;;;;;;15.86;100.00;100099.34;6217551;23;20016;-40
2022/09/06 02:33:45;;;;;;;41.30;6.95;;;;;;;15.86;100.00;100105.72;6217988;23;20099;-42
2022/09/06 02:36:15;;;;;;;40.60;7.68;;;;;;;15.86;100.00;100099.34;6217885;23;20347;-41
2022/09/06 02:38:44;;;;;;;38.72;7.95;;;;;;;15.85;100.00;100098.56;6216088;23;20127;-42
2022/09/06 02:41:17;;;;;;;39.63;7.47;;;;;;;15.83;100.00;100093.34;6191718;23;20031;-61
2022/09/06 02:43:43;;;;;;;29.73;5.15;;;;;;;15.82;100.00;100085.38;6217436;23;20020;-41
2022/09/06 02:55:49;;;;;;;38.85;7.03;;;;;;;15.71;99.94;100084.56;6241625;22;20031;-41
2022/09/06 02:58:36;;;;;;;46.85;7.03;;;;;;;15.71;99.90;100078.97;6247260;23;20439;-45
2022/09/06 03:01:23;;;;;;;30.08;4.93;;;;;;;15.70;100.00;100080.19;6247286;23;20035;-40
2022/09/06 03:23:41;;;;;;;35.55;5.47;;;;;;;15.65;99.32;100072.19;6221203;23;20021;-49
2022/09/06 03:26:29;;;;;;;46.17;8.88;;;;;;;15.63;99.42;100072.59;6226555;23;20034;-42
2022/09/06 03:29:16;;;;;;;29.48;5.38;;;;;;;15.63;99.45;100055.03;6248103;23;20020;-41
2022/09/06 03:32:01;;;;;;;37.80;6.50;;;;;;;15.62;99.27;100056.25;6220942;23;20342;-40
2022/09/06 03:34:28;;;;;;;26.30;4.57;;;;;;;15.60;99.40;100058.63;6248114;23;20020;-41
2022/09/06 03:36:55;;;;;;;33.03;4.82;;;;;;;15.61;99.40;100051.84;6245877;23;20461;-41
2022/09/06 03:39:21;;;;;;;33.60;5.75;;;;;;;15.61;99.19;100060.22;6248598;23;20525;-41
2022/09/06 03:41:51;;;;;;;54.03;7.07;;;;;;;15.59;98.97;100055.06;6246081;23;20043;-40
2022/09/06 03:44:26;;;;;;;30.35;5.40;;;;;;;15.61;99.21;100054.66;6221956;23;20024;-42
2022/09/06 03:46:56;;;;;;;38.05;5.55;;;;;;;15.60;99.04;100042.69;6247215;23;20457;-47
2022/09/06 03:49:27;;;;;;;32.40;5.03;;;;;;;15.61;99.03;100051.84;6248445;23;20042;-39
2022/09/06 03:51:53;;;;;;;32.13;4.78;;;;;;;15.62;99.07;100061.84;6248989;23;20091;-42
2022/09/06 03:54:20;;;;;;;26.45;5.20;;;;;;;15.63;98.97;100057.84;6247390;23;20106;-41
2022/09/06 03:56:50;;;;;;;28.13;4.15;;;;;;;15.63;99.05;100049.47;6247963;23;20016;-47
2022/09/06 03:59:16;;;;;;;19.67;5.68;;;;;;;15.63;98.97;100052.25;6246969;23;20016;-41
2022/09/06 04:01:43;;;;;;;28.80;5.82;;;;;;;15.65;98.95;100056.25;6248152;23;20051;-41
2022/09/06 04:04:10;;;;;;;35.55;4.60;;;;;;;15.68;98.79;100065.81;6248823;23;20023;-40
2022/09/06 04:06:37;;;;;;;36.22;5.05;;;;;;;15.68;98.64;100054.66;6246739;23;20427;-40
2022/09/06 04:09:08;;;;;;;32.42;5.03;;;;;;;15.69;98.58;100053.47;6248296;23;20024;-41
2022/09/06 04:11:57;;;;;;;23.98;4.57;;;;;;;15.68;98.46;100047.06;6248770;23;20031;-41
2022/09/06 04:14:44;;;;;;;27.98;4.20;;;;;;;15.70;98.36;100035.53;6247163;23;20385;-40
2022/09/06 04:17:31;;;;;;;25.23;4.28;;;;;;;15.70;98.44;100053.06;6246701;23;20030;-41
2022/09/06 04:20:19;;;;;;;31.35;5.40;;;;;;;15.68;98.23;100055.44;6248026;23;20099;-43
2022/09/06 04:22:47;;;;;;;32.90;7.60;;;;;;;15.65;98.22;100044.28;6220474;23;20020;-40
2022/09/06 04:25:14;;;;;;;30.40;4.30;;;;;;;15.64;98.09;100049.09;6220644;23;20020;-57
2022/09/06 04:27:42;;;;;;;29.02;5.47;;;;;;;15.62;98.16;100042.31;6246252;23;20362;-41
2022/09/06 04:30:09;;;;;;;24.10;3.83;;;;;;;15.58;98.14;100042.28;6247974;23;20513;-41
2022/09/06 04:32:56;;;;;;;24.45;4.13;;;;;;;15.55;98.21;100047.84;6248095;23;20024;-39
2022/09/06 04:35:47;;;;;;;27.13;4.05;;;;;;;15.52;97.78;100034.69;6235018;23;20035;-41
2022/09/06 04:38:38;;;;;;;27.63;5.20;;;;;;;15.48;97.58;100028.31;6247547;23;20024;-48
2022/09/06 04:41:25;;;;;;;22.42;4.75;;;;;;;15.44;97.73;100033.03;6247163;22;20229;-40
2022/09/06 04:59:23;;;;;;;16.23;3.05;;;;;;;15.14;96.16;100019.44;6130591;23;20022;-40
2022/09/06 05:02:10;;;;;;;19.63;3.58;;;;;;;15.12;95.72;100028.19;6129622;23;20104;-41
2022/09/06 05:04:55;;;;;;;24.93;6.13;;;;;;;15.13;95.75;100024.22;6130440;23;20321;-41
2022/09/06 05:42:05;;;;;;;24.35;5.63;;;;;;;15.50;97.46;100031.50;6242398;23;20233;-40
2022/09/06 05:44:36;;;;;;;25.30;5.43;;;;;;;15.51;97.43;100033.09;6157768;23;20455;-48
2022/09/06 05:47:06;;;;;;;37.00;6.38;;;;;;;15.54;97.58;100035.09;6159547;23;20021;-41
2022/09/06 05:49:33;;;;;;;28.42;4.80;;;;;;;15.55;97.80;100034.69;6158159;23;20116;-42
2022/09/06 05:52:00;;;;;;;45.53;5.43;;;;;;;15.57;97.86;100037.09;6159047;23;20028;-39
2022/09/06 05:54:27;;;;;;;36.35;6.93;;;;;;;15.58;97.90;100041.47;6158418;23;20040;-39
2022/09/06 05:57:14;;;;;;;30.63;5.15;;;;;;;15.60;98.10;100041.88;6158227;23;20356;-41
2022/09/06 06:00:01;;;;;;;30.33;5.22;;;;;;;15.60;98.04;100036.28;6156936;23;20074;-41
2022/09/06 06:02:48;;;;;;;32.35;6.00;;;;;;;15.60;98.20;100037.09;6157168;23;20029;-41
2022/09/06 06:05:35;;;;;;;27.67;4.97;;;;;;;15.63;98.12;100032.72;6159466;23;20336;-41
2022/09/06 06:08:09;;;;;;;32.38;4.63;;;;;;;15.64;98.23;100032.34;6158148;23;20055;-41
2022/09/06 06:10:39;;;;;;;33.13;5.25;;;;;;;15.65;98.19;100033.13;6159072;23;20420;-41
2022/09/06 06:13:08;;;;;;;28.52;6.47;;;;;;;15.65;98.10;100035.91;6157075;23;20456;-41
2022/09/06 06:15:35;;;;;;;22.20;4.95;;;;;;;15.66;97.91;100029.94;6157887;23;20378;-40
2022/09/06 06:18:08;;;;;;;21.75;4.63;;;;;;;15.66;97.65;100027.16;6157683;23;20096;-47
2022/09/06 06:20:34;;;;;;;32.58;6.35;;;;;;;15.69;97.36;100034.72;6129659;23;20026;-40
2022/09/06 06:23:01;;;;;;;19.05;4.00;;;;;;;15.71;97.37;100031.53;6156132;23;20032;-41
2022/09/06 06:25:28;;;;;;;37.90;5.70;;;;;;;15.74;97.30;100036.31;6154735;23;20105;-41
2022/09/06 06:27:57;;;;;;;36.85;5.30;;;;;;;15.77;97.33;100029.94;6156235;23;20014;-41
2022/09/06 06:30:25;;;;;;;30.58;5.07;;;;;;;15.76;97.17;100029.16;6157197;23;20317;-41
2022/09/06 06:36:56;;;;;;;24.10;5.15;;;;;;;15.80;96.84;100026.38;6237017;23;20435;-40
2022/09/06 06:39:43;;;;;;;32.83;7.32;;;;;;;15.83;96.74;100025.59;6242509;23;20034;-42
2022/09/06 06:42:23;;;;;;;29.15;5.75;;;;;;;15.85;96.67;100025.97;6245122;23;20016;-42
2022/09/06 07:22:07;;;;;;;20.25;4.97;;;;;;;16.13;93.71;100012.00;6218274;22;20021;-40
2022/09/06 07:24:57;;;;;;;16.20;2.63;;;;;;;16.11;93.69;100006.03;6215317;23;20028;-41
2022/09/06 07:27:44;;;;;;;23.95;5.28;;;;;;;16.10;93.79;100001.63;6217812;23;20024;-41
2022/09/06 07:30:36;;;;;;;26.23;6.75;;;;;;;16.14;93.55;99998.84;6216177;23;20024;-42
2022/09/06 07:45:07;;;;;;;17.17;3.20;;;;;;;16.42;91.08;99994.00;6217732;22;20021;-40
2022/09/06 07:47:58;;;;;;;16.35;3.25;;;;;;;16.44;91.13;99994.38;6215923;23;20024;-41
2022/09/06 07:50:27;;;;;;;20.95;4.20;;;;;;;16.47;91.09;100003.19;6216782;23;20320;-40
2022/09/06 07:57:22;;;;;;;22.08;3.88;;;;;;;16.48;90.52;99996.38;6214475;23;20013;-38
2022/09/06 07:59:48;;;;;;;17.50;4.63;;;;;;;16.50;90.54;100003.16;6216395;23;20392;-40
2022/09/06 08:06:28;;;;;;;27.35;4.82;;;;;;;16.44;90.37;99997.19;6217088;23;20062;-40
2022/09/06 08:09:15;;;;;;;29.90;5.22;;;;;;;16.45;90.43;99998.78;6215970;23;20024;-41
2022/09/06 08:12:06;;;;;;;26.58;4.82;;;;;;;16.49;90.40;100000.78;6213175;23;20029;-41
2022/09/06 08:15:16;;;;;;;24.20;4.65;;;;;;;16.55;90.62;99988.81;6211477;23;20518;-39
2022/09/06 08:17:47;;;;;;;39.53;4.72;;;;;;;16.64;90.54;99986.38;6215308;23;20094;-40
2022/09/06 08:20:14;;;;;;;27.45;5.43;;;;;;;16.70;90.28;99983.97;6217789;23;20036;-40
2022/09/06 08:26:34;;;;;;;27.73;4.95;;;;;;;16.92;89.81;99999.44;6218088;23;20099;-40
2022/09/06 08:37:01;;;;;;;23.55;4.40;;;;;;;17.00;89.05;99987.03;6219340;22;20012;-40
2022/09/06 08:44:03;;;;;;;21.45;4.03;;;;;;;17.06;88.69;99982.63;6218667;22;20016;-40
2022/09/06 08:46:59;;;;;;;30.17;4.72;;;;;;;17.05;88.45;99972.63;6215515;23;20350;-40
2022/09/06 08:54:25;;;;;;;21.88;4.60;;;;;;;17.18;88.12;99984.16;6165838;23;20434;-41
2022/09/06 08:56:54;;;;;;;28.80;4.45;;;;;;;17.16;87.84;99980.94;6180255;23;20021;-40
2022/09/06 08:59:21;;;;;;;24.92;6.53;;;;;;;17.10;87.66;99972.22;6180507;23;20017;-40
2022/09/06 09:02:08;;;;;;;29.08;5.63;;;;;;;17.07;88.12;99975.81;6179901;23;20017;-39
2022/09/06 09:04:41;;;;;;;36.92;5.63;;;;;;;17.07;88.04;99972.22;6180040;23;20021;-39
2022/09/06 09:07:20;;;;;;;38.58;6.50;;;;;;;17.08;88.23;99976.63;6179986;23;20443;-40
2022/09/06 09:09:47;;;;;;;31.92;4.65;;;;;;;17.11;88.00;99979.38;6178057;23;20459;-40
2022/09/06 09:12:21;;;;;;;28.25;4.85;;;;;;;17.18;87.76;99973.78;6177895;23;20017;-43
2022/09/06 09:14:52;;;;;;;26.52;4.43;;;;;;;17.23;87.67;99981.72;6179546;23;20324;-39
2022/09/06 09:17:26;;;;;;;22.23;5.43;;;;;;;17.39;87.66;99993.22;6180718;23;20104;-39
2022/09/06 09:19:54;;;;;;;20.65;4.13;;;;;;;17.51;87.15;99981.53;6179716;23;20017;-39
2022/09/06 09:22:22;;;;;;;26.15;5.80;;;;;;;17.61;86.92;99986.28;6180248;23;20036;-40
2022/09/06 09:24:51;;;;;;;38.67;6.32;;;;;;;17.72;86.31;99991.00;6180145;23;20060;-42
2022/09/06 09:27:23;;;;;;;27.77;5.28;;;;;;;17.72;86.09;99977.00;6180204;23;20358;-39
2022/09/06 09:29:52;;;;;;;24.33;3.90;;;;;;;17.72;86.00;99986.22;6180257;23;20013;-39
2022/09/06 09:32:41;;;;;;;39.05;7.05;;;;;;;17.73;85.76;99989.81;6180803;23;20023;-39
2022/09/06 09:35:15;;;;;;;35.72;5.78;;;;;;;17.75;85.66;99990.19;6181690;23;20075;-40
2022/09/06 09:37:43;;;;;;;32.67;5.18;;;;;;;17.70;85.17;99988.63;6180911;23;20021;-40
2022/09/06 09:40:17;;;;;;;28.65;5.35;;;;;;;17.75;85.22;99990.19;6181905;23;20056;-39
2022/09/06 09:42:44;;;;;;;24.25;4.90;;;;;;;17.80;84.98;99986.94;6155321;23;20055;-39
2022/09/06 09:45:37;;;;;;;32.22;5.28;;;;;;;17.82;84.46;99984.56;6181952;23;20027;-40
2022/09/06 09:48:16;;;;;;;24.27;5.00;;;;;;;17.88;84.63;99977.28;6174466;23;20029;-41
2022/09/06 09:50:43;;;;;;;29.67;4.40;;;;;;;17.92;84.31;99972.47;6182179;23;20403;-41
2022/09/06 09:53:13;;;;;;;26.45;5.15;;;;;;;17.94;83.75;99987.66;6181316;23;20029;-42
2022/09/06 09:55:41;;;;;;;30.65;6.05;;;;;;;18.00;83.80;99974.75;6181809;23;20355;-43
2022/09/06 09:58:20;;;;;;;26.42;5.22;;;;;;;18.12;83.67;99973.47;6181126;23;20052;-39
2022/09/06 10:00:48;;;;;;;30.85;4.13;;;;;;;18.16;82.94;99977.03;6181474;23;20020;-40
2022/09/06 10:03:25;;;;;;;28.90;5.10;;;;;;;18.12;82.75;99976.28;6181293;23;20107;-42
2022/09/06 10:05:59;;;;;;;25.65;5.65;;;;;;;18.02;82.81;99979.97;6154526;23;20020;-42
2022/09/06 10:08:31;;;;;;;22.60;5.78;;;;;;;17.86;83.12;99988.09;6181434;23;20339;-39
2022/09/06 10:10:58;;;;;;;23.95;5.28;;;;;;;17.74;83.48;99980.22;6181619;23;20021;-44
2022/09/06 10:13:30;;;;;;;33.83;6.53;;;;;;;17.67;83.47;99983.06;6182105;23;20402;-39
2022/09/06 10:15:59;;;;;;;25.63;4.32;;;;;;;17.62;83.59;99999.09;6180643;23;20371;-43
2022/09/06 10:18:41;;;;;;;18.42;4.43;;;;;;;17.52;84.16;99999.94;6152931;23;20028;-39
2022/09/06 10:21:18;;;;;;;27.00;4.18;;;;;;;17.35;84.89;99994.44;6182200;23;20108;-40
2022/09/06 10:24:09;;;;;;;31.27;5.88;;;;;;;17.18;85.22;99986.97;6182448;23;20017;-39
2022/09/06 10:26:59;;;;;;;29.17;4.82;;;;;;;17.12;86.74;99980.19;6180882;23;20017;-39
2022/09/06 10:29:51;;;;;;;35.35;5.38;;;;;;;17.28;87.63;99975.72;6181645;23;20027;-38
2022/09/06 10:32:37;;;;;;;;;;;;;;;17.35;88.00;99972.06;6154777;23;20337;-39
2022/09/06 10:35:10;;;;;;;25.95;4.80;;;;;;;17.60;87.39;99972.72;6181829;23;19971;-39
2022/09/06 10:38:04;;;;;;;23.63;4.05;;;;;;;18.45;85.45;99980.34;6181717;23;20427;-39
2022/09/06 10:40:40;;;;;;;14.65;4.80;;;;;;;19.17;82.79;99973.47;6154452;23;20087;-41
2022/09/06 10:43:12;;;;;;;25.40;5.00;;;;;;;19.68;80.60;99970.31;6154682;23;20071;-39
2022/09/06 10:46:01;;;;;;;37.65;6.47;;;;;;;19.96;79.75;99967.03;6181120;23;20021;-40
2022/09/06 10:48:31;;;;;;;32.95;6.43;;;;;;;20.10;79.40;99945.53;6181453;23;20087;-41
2022/09/06 10:51:35;;;;;;;31.83;7.30;;;;;;;20.15;79.04;99942.25;6154046;23;20029;-41
2022/09/06 10:54:09;;;;;;;32.55;6.63;;;;;;;20.15;79.11;99947.88;6178895;23;20486;-42
2022/09/06 10:56:44;;;;;;;23.25;4.78;;;;;;;20.19;79.25;99942.97;6181406;23;20028;-41
2022/09/06 10:59:30;;;;;;;31.77;5.30;;;;;;;20.21;78.53;99948.94;6181239;23;20017;-46
2022/09/06 11:02:37;;;;;;;24.52;4.60;;;;;;;19.86;78.43;99948.34;6181042;23;20363;-40
2022/09/06 11:05:08;;;;;;;23.98;5.30;;;;;;;19.47;79.10;99939.78;6180847;23;20021;-39
2022/09/06 11:08:12;;;;;;;20.85;3.88;;;;;;;19.13;79.70;99945.47;6181139;23;20016;-40
2022/09/06 11:11:06;;;;;;;22.33;4.75;;;;;;;18.81;79.89;99929.06;6180827;23;20023;-40
2022/09/06 11:13:33;;;;;;;27.42;4.82;;;;;;;18.60;80.68;99946.16;6154496;23;20028;-40
2022/09/06 11:16:10;;;;;;;26.40;4.97;;;;;;;18.46;80.79;99942.69;6180753;23;20021;-41
2022/09/06 11:18:45;;;;;;;31.50;4.80;;;;;;;18.32;81.39;99938.03;6180525;23;20025;-41
2022/09/06 11:21:33;;;;;;;21.48;5.60;;;;;;;18.31;81.46;99936.44;6154488;23;20020;-40
2022/09/06 11:24:14;;;;;;;22.88;5.70;;;;;;;18.32;81.56;99929.63;6179830;23;20395;-39
2022/09/06 11:27:00;;;;;;;23.10;4.03;;;;;;;18.24;81.86;99933.75;6181209;23;20029;-39
2022/09/06 11:29:29;;;;;;;30.55;4.93;;;;;;;18.18;82.19;99929.78;6180940;23;20021;-39
2022/09/06 11:31:58;;;;;;;24.58;4.60;;;;;;;18.12;82.11;99925.84;6179862;23;20511;-40
2022/09/06 11:34:53;;;;;;;24.73;5.63;;;;;;;18.01;82.22;99925.16;6154056;23;20079;-39
2022/09/06 11:37:30;;;;;;;27.27;5.05;;;;;;;17.94;82.33;99936.44;6181016;23;20021;-40
2022/09/06 11:40:17;;;;;;;17.48;4.40;;;;;;;17.89;82.54;99936.88;6179455;23;20363;-39
2022/09/06 11:42:53;;;;;;;31.65;6.18;;;;;;;17.82;82.93;99923.72;6180737;23;20071;-40
2022/09/06 11:45:50;;;;;;;30.33;4.82;;;;;;;17.79;83.17;99923.78;6180985;23;20044;-40
2022/09/06 11:48:22;;;;;;;26.30;5.00;;;;;;;17.70;83.29;99927.03;6180591;23;20017;-39
2022/09/06 11:50:52;;;;;;;29.70;6.25;;;;;;;17.60;83.76;99920.34;6180166;23;20071;-39
2022/09/06 11:53:22;;;;;;;28.50;5.28;;;;;;;17.52;84.35;99926.38;6179513;23;20025;-40
2022/09/06 11:56:00;;;;;;;27.20;6.18;;;;;;;17.43;84.96;99924.03;6179989;23;20101;-39
2022/09/06 11:58:52;;;;;;;35.53;6.07;;;;;;;17.33;85.07;99913.72;6179624;23;20020;-39
2022/09/06 12:01:19;;;;;;;35.53;6.07;;;;;;;17.23;85.68;99914.59;6180902;23;20033;-40
2022/09/06 12:03:46;;;;;;;24.92;4.45;;;;;;;17.17;85.60;99921.00;6177060;23;20040;-40
2022/09/06 12:06:31;;;;;;;;;;;;;;;17.07;86.67;99916.28;6179403;23;20113;-40
2022/09/06 12:08:58;;;;;;;33.08;7.15;;;;;;;16.96;86.33;99913.56;6178734;23;19959;-42
2022/09/06 12:11:26;;;;;;;35.50;8.38;;;;;;;16.87;86.89;99907.59;6154169;23;20092;-39
2022/09/06 12:14:34;;;;;;;40.72;6.93;;;;;;;16.78;87.63;99921.25;6152891;23;20372;-41
2022/09/06 12:17:03;;;;;;;34.22;5.28;;;;;;;16.70;87.95;99919.69;6151915;23;20053;-41
2022/09/06 12:19:53;;;;;;;36.65;5.88;;;;;;;16.61;88.58;99919.31;6178984;23;20069;-39
2022/09/06 12:22:29;;;;;;;42.47;6.85;;;;;;;16.55;88.73;99926.53;6179915;23;20116;-40
2022/09/06 12:25:26;;;;;;;32.58;5.25;;;;;;;16.49;89.54;99917.75;6179470;23;20100;-38
2022/09/06 12:27:56;;;;;;;41.67;7.32;;;;;;;16.42;89.78;99914.97;6201791;23;20040;-42
2022/09/06 12:30:42;;;;;;;36.40;7.00;;;;;;;16.35;90.41;99913.00;6179536;23;20080;-39
2022/09/06 12:33:23;;;;;;;35.85;8.55;;;;;;;16.32;90.98;99910.22;6179904;23;20036;-38
2022/09/06 12:35:51;;;;;;;38.97;5.90;;;;;;;16.25;91.15;99905.47;6178827;23;20120;-38
2022/09/06 12:38:24;;;;;;;33.17;5.28;;;;;;;16.23;91.52;99919.00;6153469;23;20020;-40
2022/09/06 12:40:57;;;;;;;41.53;7.30;;;;;;;16.20;91.97;99903.06;6180436;23;20443;-38
2022/09/06 12:43:27;;;;;;;31.10;6.68;;;;;;;16.22;92.24;99895.09;6178073;23;20117;-39
2022/09/06 12:45:58;;;;;;;39.70;6.80;;;;;;;16.20;92.32;99891.88;6178188;23;20028;-39
2022/09/06 12:48:26;;;;;;;12.65;2.35;;;;;;;16.14;92.49;99873.97;6179325;23;20467;-40
2022/09/06 12:51:12;;;;;;;17.52;3.33;;;;;;;16.07;92.45;99881.59;6150075;23;20071;-46
2022/09/06 12:53:39;;;;;;;21.77;4.53;;;;;;;15.98;92.63;99876.41;6179062;23;20129;-39
2022/09/06 12:56:08;;;;;;;25.73;5.85;;;;;;;15.98;92.73;99882.00;6180002;23;20075;-39
2022/09/06 12:58:37;;;;;;;19.20;3.90;;;;;;;16.01;93.35;99878.41;6178686;23;20024;-44
2022/09/06 13:01:26;;;;;;;28.95;6.65;;;;;;;16.10;94.07;99873.19;6178776;23;20060;-50
2022/09/06 13:04:10;;;;;;;38.15;7.68;;;;;;;16.24;94.29;99870.34;6178024;23;20020;-41
2022/09/06 13:06:45;;;;;;;32.65;4.55;;;;;;;16.36;94.43;99871.91;6181076;23;20037;-40
2022/09/06 13:09:16;;;;;;;32.42;4.85;;;;;;;16.50;94.09;99863.44;6155934;23;20059;-41
2022/09/06 13:11:47;;;;;;;41.88;9.52;;;;;;;16.62;94.43;99856.66;6182527;23;20112;-39
2022/09/06 13:14:26;;;;;;;30.50;6.93;;;;;;;16.63;94.35;99861.81;6156649;23;20092;-44
2022/09/06 13:16:56;;;;;;;27.65;5.97;;;;;;;16.66;94.37;99857.41;6182506;23;20100;-45
2022/09/06 13:19:33;;;;;;;35.67;7.13;;;;;;;16.70;94.31;99841.44;6182009;23;20419;-39
2022/09/06 13:22:02;;;;;;;37.42;6.82;;;;;;;16.77;94.51;99852.56;6182734;23;20096;-47
2022/09/06 13:24:41;;;;;;;34.30;7.00;;;;;;;16.78;94.55;99848.56;6182169;23;20104;-39
2022/09/06 13:27:22;;;;;;;34.17;6.00;;;;;;;16.71;94.46;99849.41;6182538;23;20072;-41
2022/09/06 13:29:57;;;;;;;31.83;5.72;;;;;;;16.73;94.91;99846.22;6181973;23;20021;-40
2022/09/06 13:32:28;;;;;;;34.35;6.57;;;;;;;16.69;95.05;99839.81;6182308;23;20080;-39
2022/09/06 13:34:57;;;;;;;39.67;7.00;;;;;;;16.62;95.16;99832.28;6181800;23;20025;-41
2022/09/06 13:37:30;;;;;;;33.78;6.82;;;;;;;16.60;95.62;99831.09;6182507;23;20083;-39
2022/09/06 13:39:58;;;;;;;28.83;5.40;;;;;;;16.59;95.87;99823.91;6182122;23;20343;-41
2022/09/06 13:42:34;;;;;;;33.90;5.50;;;;;;;16.59;95.91;99824.72;6182105;23;20051;-39
2022/09/06 13:45:24;;;;;;;34.30;5.68;;;;;;;16.61;96.01;99818.72;6181125;23;20043;-46
2022/09/06 13:47:51;;;;;;;30.52;5.70;;;;;;;16.65;96.12;99822.28;6181950;23;20071;-39
2022/09/06 13:50:37;;;;;;;29.67;6.40;;;;;;;16.72;96.15;99827.84;6180149;23;20039;-44
2022/09/06 13:53:04;;;;;;;37.45;6.43;;;;;;;16.81;96.01;99826.16;6181839;23;20024;-39
2022/09/06 13:55:32;;;;;;;41.17;6.85;;;;;;;16.93;96.46;99822.09;6182068;23;20092;-39
2022/09/06 13:57:58;;;;;;;37.38;7.95;;;;;;;17.11;96.34;99822.75;6181846;23;20099;-45
2022/09/06 14:00:25;;;;;;;44.47;10.23;;;;;;;17.29;95.96;99829.00;6181362;23;20024;-42
2022/09/06 14:02:54;;;;;;;35.38;5.82;;;;;;;17.44;95.50;99824.88;6182312;23;20017;-39
2022/09/06 14:05:21;;;;;;;28.38;6.82;;;;;;;17.46;95.23;99825.25;6181818;23;20024;-40
2022/09/06 14:07:47;;;;;;;35.55;6.10;;;;;;;17.46;95.13;99819.66;6181682;23;20025;-42
2022/09/06 14:10:14;;;;;;;30.63;4.70;;;;;;;17.45;95.14;99815.28;6182023;23;20109;-38
2022/09/06 14:12:41;;;;;;;34.03;6.82;;;;;;;17.50;94.94;99803.63;6179986;23;20495;-46
2022/09/06 14:15:08;;;;;;;33.40;5.15;;;;;;;17.50;94.39;99809.22;6180647;23;20099;-41
2022/09/06 14:17:35;;;;;;;21.48;5.70;;;;;;;17.48;94.52;99803.25;6181265;23;20047;-41
2022/09/06 14:20:02;;;;;;;24.50;4.97;;;;;;;17.50;94.65;99800.81;6181796;23;20017;-41
2022/09/06 14:22:29;;;;;;;28.17;5.88;;;;;;;17.53;94.38;99808.44;6181531;23;20025;-40
2022/09/06 14:24:56;;;;;;;22.40;4.15;;;;;;;17.63;94.35;99793.53;6181652;23;20036;-40
2022/09/06 14:27:23;;;;;;;34.20;5.20;;;;;;;17.86;94.15;99803.28;6181188;23;20047;-41
2022/09/06 14:29:49;;;;;;;20.00;4.22;;;;;;;18.16;93.14;99792.16;6180269;23;20032;-48
2022/09/06 14:32:18;;;;;;;15.90;3.15;;;;;;;18.36;92.37;99793.06;6181024;23;20096;-38
2022/09/06 15:52:36;;;;;;;15.93;3.67;;;;;;;18.74;85.49;99724.44;6253151;22;20136;-44
2022/09/06 16:05:15;;;;;;;8.70;2.55;;;;;;;18.23;84.57;99725.59;6238000;23;20024;-40
2022/09/06 16:07:43;;;;;;;6.68;1.40;;;;;;;18.16;83.33;99733.31;6242180;23;20086;-40
2022/09/06 16:10:11;;;;;;;12.27;2.45;;;;;;;18.20;82.90;99725.63;6243093;23;20107;-38
2022/09/06 16:12:38;;;;;;;13.70;1.92;;;;;;;18.30;82.09;99724.69;6243008;23;20040;-41
2022/09/06 16:15:05;;;;;;;11.80;3.50;;;;;;;18.38;81.33;99731.78;6243574;23;20044;-40
2022/09/06 16:17:32;;;;;;;7.50;1.42;;;;;;;18.39;81.42;99718.56;6242515;23;20118;-40
2022/09/06 16:20:00;;;;;;;8.32;1.58;;;;;;;18.33;81.04;99723.84;6243011;23;20066;-38